createdAt,value
2018-04-13T00:01:50.767Z,6.28
2018-04-13T00:04:16.979Z,4.95
2018-04-13T00:06:49.406Z,6.15
2018-04-13T00:09:15.623Z,4.97
2018-04-13T00:11:53.952Z,8.32
2018-04-13T00:14:20.160Z,9.23
2018-04-13T00:16:46.434Z,4.65
2018-04-13T00:19:19.860Z,6.20
2018-04-13T00:21:46.090Z,4.85
2018-04-13T00:24:12.315Z,7.35
2018-04-13T00:26:44.639Z,3.45
2018-04-13T00:29:16.828Z,5.12
2018-04-13T00:31:43.457Z,3.67
2018-04-13T00:34:15.968Z,7.82
2018-04-13T00:36:48.709Z,3.70
2018-04-13T00:39:14.918Z,3.78
2018-04-13T00:41:41.133Z,4.18
2018-04-13T00:44:07.359Z,4.40
2018-04-13T00:46:39.542Z,4.10
2018-04-13T00:49:05.740Z,4.60
2018-04-13T00:51:32.795Z,3.87
2018-04-13T00:54:05.105Z,5.12
2018-04-13T00:56:43.893Z,4.72
2018-04-13T00:59:16.112Z,3.97
2018-04-13T01:01:42.322Z,3.90
2018-04-13T01:04:08.544Z,4.37
2018-04-13T01:06:34.766Z,3.90
2018-04-13T01:09:14.216Z,8.43
2018-04-13T01:11:40.800Z,4.43
2018-04-13T01:14:07.050Z,5.30
2018-04-13T01:16:39.299Z,6.05
2018-04-13T01:19:05.538Z,4.70
2018-04-13T01:21:31.751Z,6.20
2018-04-13T01:23:58.832Z,4.05
2018-04-13T01:26:25.050Z,4.25
2018-04-13T01:28:51.320Z,4.55
2018-04-13T01:31:17.531Z,3.53
2018-04-13T01:33:49.684Z,3.50
2018-04-13T01:36:15.923Z,3.83
2018-04-13T01:38:42.170Z,4.70
2018-04-13T01:41:08.764Z,4.62
2018-04-13T01:43:35.016Z,3.92
2018-04-13T01:46:01.230Z,3.65
2018-04-13T01:48:27.439Z,3.75
2018-04-13T01:50:53.681Z,4.12
2018-04-13T01:53:25.901Z,4.22
2018-04-13T01:55:52.121Z,7.50
2018-04-13T01:58:18.396Z,6.97
2018-04-13T02:00:50.599Z,5.07
2018-04-13T02:03:17.198Z,5.57
2018-04-13T02:05:43.430Z,4.45
2018-04-13T02:08:21.852Z,3.75
2018-04-13T02:10:48.104Z,3.95
2018-04-13T02:13:21.577Z,8.68
2018-04-13T02:15:53.918Z,4.40
2018-04-13T02:18:26.057Z,4.80
2018-04-13T02:20:52.302Z,6.60
2018-04-13T02:23:18.549Z,8.20
2018-04-13T02:25:44.761Z,3.92
2018-04-13T02:28:17.039Z,5.25
2018-04-13T02:30:43.281Z,3.90
2018-04-13T02:33:09.537Z,4.05
2018-04-13T02:35:41.838Z,9.13
2018-04-13T02:38:08.466Z,4.72
2018-04-13T02:40:41.052Z,5.43
2018-04-13T02:43:07.698Z,7.03
2018-04-13T02:45:33.911Z,3.25
2018-04-13T02:48:00.510Z,5.60
2018-04-13T02:50:32.620Z,4.80
2018-04-13T02:53:04.803Z,4.80
2018-04-13T02:55:36.930Z,3.50
2018-04-13T02:58:03.152Z,4.75
2018-04-13T03:00:35.302Z,3.70
2018-04-13T03:03:01.536Z,4.68
2018-04-13T03:05:33.856Z,4.12
2018-04-13T03:08:06.168Z,6.62
2018-04-13T03:10:38.518Z,4.03
2018-04-13T03:13:05.520Z,4.03
2018-04-13T03:15:31.754Z,5.55
2018-04-13T03:17:57.993Z,5.25
2018-04-13T03:20:24.601Z,3.33
2018-04-13T03:22:56.988Z,4.10
2018-04-13T03:25:23.947Z,3.08
2018-04-13T03:27:50.548Z,4.30
2018-04-13T03:30:16.754Z,3.97
2018-04-13T03:32:49.063Z,4.65
2018-04-13T03:35:15.263Z,4.32
2018-04-13T03:37:41.494Z,3.62
2018-04-13T03:40:07.733Z,3.78
2018-04-13T03:42:39.958Z,5.37
2018-04-13T03:45:06.189Z,7.18
2018-04-13T03:47:32.424Z,6.05
2018-04-13T03:49:58.746Z,6.00
2018-04-13T03:52:24.979Z,4.30
2018-04-13T03:54:51.186Z,4.30
2018-04-13T03:57:17.413Z,5.47
2018-04-13T03:59:49.590Z,4.35
2018-04-13T04:02:15.805Z,3.10
2018-04-13T04:04:42.027Z,2.53
2018-04-13T04:07:14.609Z,3.15
2018-04-13T04:09:47.924Z,3.60
2018-04-13T04:12:14.137Z,3.35
2018-04-13T04:14:40.372Z,3.42
2018-04-13T04:17:06.594Z,6.93
2018-04-13T04:32:55.393Z,6.00
2018-04-13T04:35:27.718Z,4.95
2018-04-13T04:37:53.966Z,4.18
2018-04-13T04:40:26.312Z,4.72
2018-04-13T04:42:52.574Z,7.53
2018-04-13T04:45:18.802Z,5.12
2018-04-13T04:47:45.040Z,5.03
2018-04-13T04:50:11.272Z,5.35
2018-04-13T04:52:43.595Z,5.62
2018-04-13T04:55:16.757Z,3.70
2018-04-13T04:57:49.349Z,4.80
2018-04-13T05:00:15.945Z,2.62
2018-04-13T05:02:48.142Z,3.37
2018-04-13T05:05:20.869Z,3.28
2018-04-13T05:07:47.097Z,2.70
2018-04-13T05:10:13.385Z,4.20
2018-04-13T05:12:46.020Z,3.50
2018-04-13T05:15:12.304Z,7.20
2018-04-13T05:17:44.597Z,3.90
2018-04-13T05:20:10.824Z,3.35
2018-04-13T05:22:37.086Z,2.45
2018-04-13T05:25:03.304Z,5.30
2018-04-13T05:27:29.562Z,2.00
2018-04-13T05:30:01.777Z,3.35
2018-04-13T05:32:40.207Z,4.20
2018-04-13T05:35:06.454Z,2.47
2018-04-13T05:37:32.635Z,2.00
2018-04-13T05:39:58.849Z,4.70
2018-04-13T05:42:25.121Z,3.03
2018-04-13T05:44:51.346Z,2.15
2018-04-13T05:47:23.629Z,2.70
2018-04-13T05:49:55.970Z,3.22
2018-04-13T05:52:28.270Z,2.53
2018-04-13T05:54:54.510Z,3.20
2018-04-13T05:57:26.701Z,3.53
2018-04-13T05:59:53.267Z,3.95
2018-04-13T06:02:19.468Z,3.10
2018-04-13T06:04:46.794Z,2.40
2018-04-13T06:07:13.021Z,2.87
2018-04-13T06:09:45.281Z,2.28
2018-04-13T06:12:23.590Z,2.08
2018-04-13T06:14:55.744Z,2.22
2018-04-13T06:17:28.030Z,1.60
2018-04-13T06:20:00.313Z,2.47
2018-04-13T06:22:40.607Z,1.95
2018-04-13T06:25:12.803Z,2.85
2018-04-13T06:27:39.038Z,2.72
2018-04-13T06:30:05.274Z,1.27
2018-04-13T06:32:31.454Z,1.73
2018-04-13T06:35:04.159Z,2.75
2018-04-13T06:37:36.314Z,2.22
2018-04-13T06:40:02.637Z,1.50
2018-04-13T06:42:29.209Z,1.75
2018-04-13T06:45:07.762Z,2.03
2018-04-13T06:47:46.102Z,1.60
2018-04-13T06:50:18.473Z,2.08
2018-04-13T06:52:50.718Z,1.67
2018-04-13T06:55:16.913Z,1.37
2018-04-13T06:58:01.416Z,2.55
2018-04-13T07:00:28.029Z,1.40
2018-04-13T07:03:01.333Z,1.75
2018-04-13T07:05:27.541Z,2.25
2018-04-13T07:07:53.757Z,1.70
2018-04-13T07:10:38.455Z,2.03
2018-04-13T07:13:04.701Z,3.80
2018-04-13T07:15:37.324Z,1.10
2018-04-13T07:18:03.548Z,1.90
2018-04-13T07:20:41.930Z,1.50
2018-04-13T07:23:20.298Z,2.65
2018-04-13T07:25:47.448Z,1.92
2018-04-13T07:28:13.679Z,2.03
2018-04-13T07:30:45.969Z,1.75
2018-04-13T07:33:24.270Z,8.75
2018-04-13T07:35:50.479Z,2.08
2018-04-13T07:38:22.662Z,2.47
2018-04-13T07:40:54.848Z,2.55
2018-04-13T07:43:36.429Z,2.75
2018-04-13T07:46:31.034Z,2.97
2018-04-13T07:48:57.266Z,2.65
2018-04-13T07:51:24.642Z,2.87
2018-04-13T07:53:57.001Z,3.20
2018-04-13T07:56:29.344Z,2.60
2018-04-13T07:59:02.097Z,2.50
2018-04-13T08:01:27.744Z,2.95
2018-04-13T08:03:59.941Z,3.05
2018-04-13T08:06:38.231Z,2.85
2018-04-13T08:09:10.936Z,2.53
2018-04-13T08:11:43.209Z,4.32
2018-04-13T08:14:09.417Z,2.72
2018-04-13T08:16:41.697Z,3.37
2018-04-13T08:19:13.987Z,3.35
2018-04-13T08:21:46.344Z,3.00
2018-04-13T08:24:13.173Z,3.78
2018-04-13T08:26:41.163Z,3.45
2018-04-13T08:29:13.550Z,3.53
2018-04-13T08:31:39.802Z,3.20
2018-04-13T08:34:06.038Z,3.70
2018-04-13T08:36:32.260Z,3.92
2018-04-13T08:38:58.459Z,4.87
2018-04-13T08:41:24.722Z,3.70
2018-04-13T08:43:56.842Z,2.97
2018-04-13T08:46:23.910Z,9.15
2018-04-13T08:48:56.360Z,7.03
2018-04-13T08:51:22.519Z,6.97
2018-04-13T08:53:54.815Z,4.85
2018-04-13T08:56:27.483Z,3.80
2018-04-13T08:58:53.798Z,3.03
2018-04-13T09:01:20.040Z,4.40
2018-04-13T09:03:52.309Z,2.90
2018-04-13T09:06:18.584Z,3.55
2018-04-13T09:08:50.794Z,4.82
2018-04-13T09:11:17.010Z,3.53
2018-04-13T09:13:49.213Z,5.20
2018-04-13T09:16:22.052Z,3.80
2018-04-13T09:19:00.386Z,3.87
2018-04-13T09:21:26.601Z,4.10
2018-04-13T09:23:58.992Z,3.37
2018-04-13T09:26:31.165Z,4.13
2018-04-13T09:28:57.387Z,3.90
2018-04-13T09:31:29.654Z,4.50
2018-04-13T09:33:55.870Z,4.03
2018-04-13T09:36:28.117Z,4.10
2018-04-13T09:38:54.330Z,5.17
2018-04-13T09:41:20.550Z,4.57
2018-04-13T09:43:52.743Z,4.90
2018-04-13T09:46:25.054Z,4.50
2018-04-13T09:48:51.274Z,5.17
2018-04-13T09:51:35.874Z,5.03
2018-04-13T09:54:08.235Z,5.17
2018-04-13T09:56:46.700Z,4.20
2018-04-13T09:59:18.879Z,5.97
2018-04-13T10:01:45.136Z,5.27
2018-04-13T10:04:18.330Z,5.40
2018-04-13T10:06:50.499Z,6.93
2018-04-13T10:09:17.101Z,6.00
2018-04-13T10:11:55.515Z,5.20
2018-04-13T10:14:40.340Z,5.17
2018-04-13T10:17:13.350Z,7.83
2018-04-13T10:19:39.568Z,5.07
2018-04-13T10:22:05.803Z,5.87
2018-04-13T10:24:37.965Z,5.50
2018-04-13T10:27:16.490Z,5.47
2018-04-13T10:29:42.690Z,6.77
2018-04-13T10:32:08.917Z,6.17
2018-04-13T10:34:41.245Z,7.27
2018-04-13T10:37:07.492Z,6.93
2018-04-13T10:39:39.834Z,7.80
2018-04-13T10:42:12.170Z,10.17
2018-04-13T10:44:44.582Z,11.40
2018-04-13T10:47:22.940Z,13.60
2018-04-13T10:49:55.241Z,10.63
2018-04-13T10:52:27.561Z,12.77
2018-04-13T10:54:54.754Z,11.63
2018-04-13T10:57:26.947Z,9.77
2018-04-13T10:59:53.154Z,10.77
2018-04-13T11:02:31.464Z,9.50
2018-04-13T11:04:57.683Z,9.90
2018-04-13T11:07:29.834Z,10.30
2018-04-13T11:10:02.050Z,9.13
2018-04-13T11:12:34.253Z,9.10
2018-04-13T11:15:00.820Z,9.40
2018-04-13T11:17:33.181Z,10.00
2018-04-13T11:20:05.329Z,9.40
2018-04-13T11:22:43.833Z,10.87
2018-04-13T11:25:10.064Z,7.90
2018-04-13T11:27:48.775Z,9.80
2018-04-13T11:30:21.096Z,8.20
2018-04-13T11:32:59.405Z,8.87
2018-04-13T11:35:31.750Z,7.23
2018-04-13T11:38:04.458Z,7.97
2018-04-13T11:40:30.660Z,7.70
2018-04-13T11:42:56.885Z,6.90
2018-04-13T11:45:23.125Z,6.13
2018-04-13T11:47:49.404Z,5.67
2018-04-13T11:50:15.611Z,5.80
2018-04-13T11:52:47.841Z,5.77
2018-04-13T11:55:20.244Z,5.45
2018-04-13T11:57:52.525Z,6.30
2018-04-13T12:00:24.930Z,6.15
2018-04-13T12:02:57.202Z,3.55
2018-04-13T12:05:36.058Z,4.25
2018-04-13T12:08:02.242Z,4.05
2018-04-13T12:10:28.480Z,3.30
2018-04-13T12:12:54.701Z,4.18
2018-04-13T12:15:20.903Z,4.15
2018-04-13T12:17:47.141Z,3.95
2018-04-13T12:20:13.341Z,5.10
2018-04-13T12:22:39.569Z,5.10
2018-04-13T12:25:05.769Z,4.18
2018-04-13T12:27:32.370Z,4.00
2018-04-13T12:29:58.582Z,3.35
2018-04-13T12:32:24.834Z,3.80
2018-04-13T12:34:51.033Z,4.05
2018-04-13T12:37:17.245Z,5.12
2018-04-13T12:39:43.453Z,5.40
2018-04-13T12:42:09.735Z,5.05
2018-04-13T12:44:35.950Z,4.70
2018-04-13T12:47:02.176Z,5.70
2018-04-13T12:49:29.005Z,5.43
2018-04-13T12:51:55.248Z,6.03
2018-04-13T12:54:21.461Z,5.50
2018-04-13T12:56:47.882Z,6.10
2018-04-13T12:59:14.022Z,6.25
2018-04-13T13:01:40.240Z,7.43
2018-04-13T13:04:06.538Z,8.93
2018-04-13T13:06:33.119Z,6.40
2018-04-13T13:08:59.386Z,5.40
2018-04-13T13:11:25.621Z,5.22
2018-04-13T13:13:51.817Z,4.72
2018-04-13T13:16:18.067Z,4.55
2018-04-13T13:18:44.352Z,4.60
2018-04-13T13:21:10.609Z,4.75
2018-04-13T13:23:36.856Z,4.55
2018-04-13T13:26:03.081Z,4.62
2018-04-13T13:28:29.314Z,5.70
2018-04-13T13:30:55.555Z,4.90
2018-04-13T13:33:21.795Z,5.78
2018-04-13T13:35:48.061Z,5.37
2018-04-13T13:38:14.328Z,4.35
2018-04-13T13:40:40.572Z,4.85
2018-04-13T13:56:09.143Z,5.43
2018-04-13T13:58:35.737Z,3.50
2018-04-13T14:01:02.016Z,4.00
2018-04-13T14:03:28.254Z,3.70
2018-04-13T14:05:54.471Z,3.90
2018-04-13T14:08:20.707Z,4.43
2018-04-13T14:10:46.929Z,4.20
2018-04-13T14:13:13.177Z,4.20
2018-04-13T14:15:39.450Z,4.40
2018-04-13T14:18:05.677Z,4.15
2018-04-13T14:20:31.921Z,4.25
2018-04-13T14:22:58.808Z,4.10
2018-04-13T14:25:25.746Z,4.25
2018-04-13T14:27:51.954Z,4.28
2018-04-13T14:30:18.568Z,4.57
2018-04-13T14:32:45.202Z,4.12
2018-04-13T14:35:11.384Z,3.57
2018-04-13T14:37:37.598Z,3.50
2018-04-13T14:40:03.860Z,4.00
2018-04-13T14:42:30.085Z,4.03
2018-04-13T14:44:56.321Z,3.13
2018-04-13T14:47:22.631Z,3.27
2018-04-13T14:49:48.858Z,3.30
2018-04-13T14:52:15.104Z,3.23
2018-04-13T14:54:41.347Z,3.20
2018-04-13T14:57:07.594Z,3.47
2018-04-13T14:59:33.802Z,3.90
2018-04-13T15:02:00.271Z,3.27
2018-04-13T15:04:26.550Z,2.93
2018-04-13T15:06:52.817Z,3.27
2018-04-13T15:09:19.014Z,3.20
2018-04-13T15:11:45.249Z,2.93
2018-04-13T15:14:11.472Z,3.00
2018-04-13T15:16:37.666Z,3.10
2018-04-13T15:19:03.950Z,2.50
2018-04-13T15:21:30.177Z,2.70
2018-04-13T15:23:56.402Z,2.47
2018-04-13T15:26:22.643Z,2.73
2018-04-13T15:28:49.251Z,2.57
2018-04-13T15:31:15.447Z,2.40
2018-04-13T15:33:41.731Z,2.97
2018-04-13T15:36:07.975Z,2.40
2018-04-13T15:38:34.239Z,2.50
2018-04-13T15:41:00.467Z,2.73
2018-04-13T15:43:26.691Z,3.13
2018-04-13T15:45:52.973Z,2.77
2018-04-13T15:48:19.186Z,2.70
2018-04-13T15:50:45.451Z,2.87
2018-04-13T15:53:11.742Z,2.70
2018-04-13T15:55:37.969Z,2.70
2018-04-13T15:58:04.834Z,2.17
2018-04-13T16:00:31.023Z,3.10
2018-04-13T16:02:57.267Z,3.73
2018-04-13T16:05:24.377Z,3.50
2018-04-13T16:07:50.590Z,3.47
2018-04-13T16:10:16.869Z,4.27
2018-04-13T16:12:43.136Z,3.70
2018-04-13T16:15:09.380Z,4.00
2018-04-13T16:17:35.613Z,3.30
2018-04-13T16:20:01.848Z,3.43
2018-04-13T16:22:28.076Z,3.30
2018-04-13T16:24:54.349Z,2.77
2018-04-13T16:27:20.624Z,3.10
2018-04-13T16:29:46.832Z,2.80
2018-04-13T16:32:13.490Z,2.40
2018-04-13T16:34:39.702Z,2.50
2018-04-13T16:37:06.370Z,2.63
2018-04-13T16:39:32.622Z,2.37
2018-04-13T16:41:58.900Z,3.07
2018-04-13T16:44:25.154Z,1.90
2018-04-13T16:46:52.392Z,3.10
2018-04-13T16:49:18.622Z,1.50
2018-04-13T16:51:44.894Z,1.60
2018-04-13T16:54:11.142Z,1.45
2018-04-13T16:56:37.397Z,2.17
2018-04-13T16:59:03.666Z,1.35
2018-04-13T17:01:29.882Z,1.27
2018-04-13T17:03:56.147Z,1.23
2018-04-13T17:06:22.408Z,1.87
2018-04-13T17:08:49.625Z,1.60
2018-04-13T17:11:15.883Z,0.88
2018-04-13T17:13:42.109Z,0.90
2018-04-13T17:16:08.759Z,1.10
2018-04-13T17:18:35.023Z,1.10
2018-04-13T17:21:01.255Z,1.33
2018-04-13T17:23:27.508Z,0.88
2018-04-13T17:25:53.747Z,1.00
2018-04-13T17:28:19.967Z,1.85
2018-04-13T17:30:46.237Z,2.03
2018-04-13T17:33:12.449Z,1.45
2018-04-13T17:35:39.053Z,1.23
2018-04-13T17:38:05.290Z,3.30
2018-04-13T17:40:31.568Z,1.30
2018-04-13T17:42:58.157Z,1.15
2018-04-13T17:45:24.423Z,1.30
2018-04-13T17:47:50.678Z,1.00
2018-04-13T17:50:16.972Z,1.25
2018-04-13T17:52:43.226Z,1.95
2018-04-13T17:55:09.472Z,1.12
2018-04-13T17:57:35.702Z,1.35
2018-04-13T18:00:02.048Z,1.55
2018-04-13T18:02:28.305Z,1.30
2018-04-13T18:04:55.335Z,1.73
2018-04-13T18:07:21.621Z,1.15
2018-04-13T18:09:47.939Z,1.55
2018-04-13T18:12:14.261Z,1.48
2018-04-13T18:14:40.567Z,1.75
2018-04-13T18:17:07.264Z,1.60
2018-04-13T18:19:33.546Z,1.20
2018-04-13T18:21:59.892Z,1.05
2018-04-13T18:24:26.250Z,1.33
2018-04-13T18:26:52.531Z,1.10
2018-04-13T18:29:20.126Z,2.22
2018-04-13T18:31:46.503Z,1.48
2018-04-13T18:34:12.918Z,1.37
2018-04-13T18:36:40.005Z,1.87
2018-04-13T18:39:06.420Z,2.28
2018-04-13T18:41:33.623Z,2.03
2018-04-13T18:43:59.880Z,2.75
2018-04-13T18:46:26.087Z,2.65
2018-04-13T18:48:52.339Z,3.05
2018-04-13T18:51:18.717Z,2.40
2018-04-13T18:53:46.374Z,4.47
2018-04-13T18:56:13.212Z,1.80
2018-04-13T18:58:40.030Z,2.00
2018-04-13T19:01:06.364Z,1.92
2018-04-13T19:03:33.543Z,1.40
2018-04-13T19:05:59.829Z,2.03
2018-04-13T19:08:26.707Z,1.90
2018-04-13T19:10:53.151Z,1.52
2018-04-13T19:13:19.701Z,1.52
2018-04-13T19:15:53.094Z,1.30
2018-04-13T19:18:23.436Z,1.67
2018-04-13T19:20:50.815Z,1.55
2018-04-13T19:23:17.022Z,1.60
2018-04-13T19:25:44.893Z,1.83
2018-04-13T19:28:11.113Z,1.45
2018-04-13T19:30:37.562Z,1.62
2018-04-13T19:33:04.213Z,1.58
2018-04-13T19:35:31.670Z,2.05
2018-04-13T19:37:59.642Z,2.47
2018-04-13T19:40:29.702Z,2.05
2018-04-13T19:42:56.943Z,2.55
2018-04-13T19:45:23.732Z,1.65
2018-04-13T19:47:49.956Z,2.70
2018-04-13T19:50:17.197Z,2.03
2018-04-13T19:52:44.623Z,3.42
2018-04-13T19:55:15.601Z,4.35
2018-04-13T19:57:50.197Z,5.25
2018-04-13T20:00:16.700Z,5.97
2018-04-13T20:02:43.317Z,13.27
2018-04-13T20:05:09.582Z,6.97
2018-04-13T20:07:36.282Z,7.87
2018-04-13T20:10:02.556Z,6.53
2018-04-13T20:12:29.227Z,2.92
2018-04-13T20:14:55.509Z,3.70
2018-04-13T20:17:22.289Z,4.35
2018-04-13T20:19:48.735Z,2.97
2018-04-13T20:22:15.059Z,2.10
2018-04-13T20:24:41.296Z,2.50
2018-04-13T20:27:07.557Z,2.40
2018-04-13T20:29:33.841Z,2.67
2018-04-13T20:32:00.894Z,2.33
2018-04-13T20:34:27.143Z,4.85
2018-04-13T20:36:53.367Z,2.72
2018-04-13T20:39:19.583Z,2.70
2018-04-13T20:41:45.835Z,3.37
2018-04-13T20:44:12.023Z,3.50
2018-04-13T20:46:38.239Z,4.25
2018-04-13T20:49:04.566Z,2.72
2018-04-13T20:51:30.766Z,2.85
2018-04-13T20:53:56.989Z,3.12
2018-04-13T20:56:23.642Z,3.15
2018-04-13T20:58:50.214Z,3.90
2018-04-13T21:01:16.511Z,3.80
2018-04-13T21:03:43.631Z,5.50
2018-04-13T21:06:09.923Z,4.20
2018-04-13T21:08:36.200Z,4.40
2018-04-13T21:11:02.411Z,5.93
2018-04-13T21:13:28.611Z,5.50
2018-04-13T21:15:54.848Z,4.28
2018-04-13T21:18:21.042Z,4.85
2018-04-13T21:20:47.244Z,4.45
2018-04-13T21:23:13.524Z,6.20
2018-04-13T21:25:39.743Z,5.28
2018-04-13T21:28:05.968Z,5.37
2018-04-13T21:30:32.206Z,5.00
2018-04-13T21:32:58.507Z,4.80
2018-04-13T21:35:25.168Z,5.97
2018-04-13T21:37:51.448Z,4.85
2018-04-13T21:40:17.716Z,4.37
2018-04-13T21:42:43.905Z,5.35
2018-04-13T21:45:10.129Z,4.60
2018-04-13T21:47:36.309Z,4.93
2018-04-13T21:50:02.579Z,4.30
2018-04-13T21:52:28.825Z,5.18
2018-04-13T21:54:55.026Z,7.15
2018-04-13T21:57:21.221Z,4.75
2018-04-13T21:59:48.312Z,4.72
2018-04-13T22:02:14.532Z,5.90
2018-04-13T22:04:41.730Z,6.55
2018-04-13T22:07:07.955Z,6.60
2018-04-13T22:09:35.145Z,6.57
2018-04-13T22:12:01.342Z,5.85
2018-04-13T22:14:39.825Z,5.82
2018-04-13T22:17:06.042Z,5.72
2018-04-13T22:19:32.246Z,5.95
2018-04-13T22:21:58.495Z,5.85
2018-04-13T22:24:24.707Z,5.93
2018-04-13T22:26:50.903Z,5.85
2018-04-13T22:29:17.129Z,4.78
2018-04-13T22:31:43.334Z,5.05
2018-04-13T22:34:09.888Z,5.72
2018-04-13T22:36:36.142Z,5.60
2018-04-13T22:39:02.424Z,5.12
2018-04-13T22:41:29.002Z,6.15
2018-04-13T22:43:55.227Z,5.65
2018-04-13T22:46:21.430Z,6.43
2018-04-13T22:48:47.648Z,6.60
2018-04-13T22:51:14.260Z,6.03
2018-04-13T22:53:40.482Z,6.40
2018-04-13T22:56:06.763Z,5.00
2018-04-13T22:58:32.977Z,5.32
2018-04-13T23:00:59.186Z,6.97
2018-04-13T23:03:25.808Z,5.90
2018-04-13T23:05:52.041Z,6.05
2018-04-13T23:08:18.245Z,6.32
2018-04-13T23:10:44.486Z,5.97
2018-04-13T23:13:10.706Z,5.72
2018-04-13T23:15:36.902Z,5.60
2018-04-13T23:18:03.158Z,6.93
2018-04-13T23:20:29.342Z,5.75
2018-04-13T23:22:55.526Z,6.05
2018-04-13T23:25:21.766Z,6.25
2018-04-13T23:27:47.961Z,5.57
2018-04-13T23:30:14.164Z,5.57
2018-04-13T23:32:40.388Z,5.15
2018-04-13T23:35:06.590Z,5.30
2018-04-13T23:37:32.757Z,5.97
2018-04-13T23:39:58.986Z,6.40
2018-04-13T23:42:25.171Z,5.20
2018-04-13T23:44:51.713Z,5.80
2018-04-13T23:47:18.290Z,6.50
2018-04-13T23:49:44.492Z,5.45
2018-04-13T23:52:10.689Z,5.65
2018-04-13T23:54:37.253Z,5.43
2018-04-13T23:57:03.465Z,4.80
2018-04-13T23:59:29.646Z,4.45
